createdAt,value
2018-09-29T00:00:16.245Z,9.29
2018-09-29T00:02:45.643Z,9.32
2018-09-29T00:05:15.350Z,9.30
2018-09-29T00:07:44.948Z,9.31
2018-09-29T00:10:15.292Z,9.29
2018-09-29T00:12:44.751Z,9.25
2018-09-29T00:15:14.325Z,9.23
2018-09-29T00:17:43.638Z,9.19
2018-09-29T00:20:13.375Z,9.19
2018-09-29T00:22:43.090Z,9.18
2018-09-29T00:25:13.979Z,9.14
2018-09-29T00:27:43.741Z,9.15
2018-09-29T00:30:13.285Z,9.13
2018-09-29T00:32:44.246Z,9.11
2018-09-29T00:35:14.387Z,9.11
2018-09-29T00:37:44.367Z,9.07
2018-09-29T00:40:14.374Z,9.08
2018-09-29T00:42:44.756Z,9.03
2018-09-29T00:45:15.804Z,9.00
2018-09-29T00:47:45.619Z,9.01
2018-09-29T00:50:15.494Z,9.02
2018-09-29T00:52:45.464Z,8.98
2018-09-29T00:55:15.392Z,8.99
2018-09-29T00:57:45.836Z,8.98
2018-09-29T01:00:15.956Z,8.94
2018-09-29T01:02:45.906Z,8.90
2018-09-29T01:05:15.868Z,8.86
2018-09-29T01:07:45.853Z,8.91
2018-09-29T01:10:15.836Z,8.82
2018-09-29T01:12:46.682Z,8.82
2018-09-29T01:15:16.727Z,8.87
2018-09-29T01:17:47.002Z,8.88
2018-09-29T01:20:17.006Z,8.72
2018-09-29T01:22:47.311Z,8.69
2018-09-29T01:25:17.567Z,8.72
2018-09-29T01:27:47.563Z,8.73
2018-09-29T01:30:18.193Z,8.69
2018-09-29T01:32:48.420Z,8.59
2018-09-29T01:35:18.657Z,8.52
2018-09-29T01:37:48.666Z,8.56
2018-09-29T01:40:18.603Z,8.57
2018-09-29T01:42:49.246Z,8.50
2018-09-29T01:45:19.127Z,8.40
2018-09-29T01:47:49.181Z,8.42
2018-09-29T01:50:21.516Z,8.36
2018-09-29T01:52:52.501Z,8.24
2018-09-29T01:55:23.174Z,8.23
2018-09-29T01:57:53.206Z,8.12
2018-09-29T02:00:23.275Z,8.13
2018-09-29T02:02:53.203Z,8.04
2018-09-29T02:05:23.376Z,8.08
2018-09-29T02:07:53.327Z,8.11
2018-09-29T02:10:23.540Z,8.08
2018-09-29T02:12:53.615Z,8.09
2018-09-29T02:15:23.623Z,8.12
2018-09-29T02:17:53.532Z,8.09
2018-09-29T02:20:23.258Z,8.07
2018-09-29T02:22:53.604Z,7.98
2018-09-29T02:25:23.521Z,8.04
2018-09-29T02:27:53.194Z,7.98
2018-09-29T02:30:23.200Z,8.01
2018-09-29T02:32:53.239Z,7.98
2018-09-29T02:35:24.064Z,7.94
2018-09-29T02:37:54.884Z,7.90
2018-09-29T02:40:25.478Z,7.87
2018-09-29T02:42:55.646Z,7.84
2018-09-29T02:45:26.432Z,7.84
2018-09-29T02:47:56.444Z,7.79
2018-09-29T02:50:26.993Z,7.72
2018-09-29T02:52:57.990Z,7.77
2018-09-29T02:55:27.941Z,7.69
2018-09-29T02:57:57.837Z,7.74
2018-09-29T03:00:27.942Z,7.65
2018-09-29T03:02:58.210Z,7.70
2018-09-29T03:05:28.080Z,7.57
2018-09-29T03:07:58.376Z,7.64
2018-09-29T03:10:28.542Z,7.59
2018-09-29T03:12:59.307Z,7.63
2018-09-29T03:15:29.483Z,7.62
2018-09-29T03:18:00.312Z,7.54
2018-09-29T03:20:31.244Z,7.63
2018-09-29T03:23:02.227Z,7.56
2018-09-29T03:25:32.213Z,7.49
2018-09-29T03:28:02.951Z,7.47
2018-09-29T03:30:33.653Z,7.48
2018-09-29T03:33:03.574Z,7.47
2018-09-29T03:35:34.333Z,7.48
2018-09-29T03:38:05.628Z,7.43
2018-09-29T03:40:35.671Z,7.40
2018-09-29T03:43:05.788Z,7.41
2018-09-29T03:45:35.754Z,7.49
2018-09-29T03:48:06.956Z,7.41
2018-09-29T03:50:37.548Z,7.48
2018-09-29T03:53:07.561Z,7.52
2018-09-29T03:55:38.246Z,7.39
2018-09-29T03:58:08.393Z,7.43
2018-09-29T04:00:38.536Z,7.38
2018-09-29T04:03:08.308Z,7.36
2018-09-29T04:05:38.465Z,7.27
2018-09-29T04:08:10.063Z,7.34
2018-09-29T04:10:39.970Z,7.36
2018-09-29T04:13:09.980Z,7.35
2018-09-29T04:15:39.764Z,7.14
2018-09-29T04:18:09.683Z,7.26
2018-09-29T04:20:40.924Z,7.16
2018-09-29T04:23:11.227Z,7.10
2018-09-29T04:25:41.526Z,7.23
2018-09-29T04:28:11.935Z,7.16
2018-09-29T04:30:42.913Z,7.23
2018-09-29T04:33:12.921Z,7.10
2018-09-29T04:35:42.992Z,7.11
2018-09-29T04:38:12.788Z,7.11
2018-09-29T04:40:42.105Z,7.03
2018-09-29T04:43:12.074Z,7.15
2018-09-29T04:45:41.787Z,7.05
2018-09-29T04:48:11.811Z,7.04
2018-09-29T04:50:42.028Z,7.02
2018-09-29T04:53:12.911Z,7.06
2018-09-29T04:55:43.757Z,7.11
2018-09-29T04:58:13.937Z,7.12
2018-09-29T05:00:44.334Z,7.10
2018-09-29T05:03:14.438Z,7.02
2018-09-29T05:05:44.295Z,6.89
2018-09-29T05:08:14.304Z,6.87
2018-09-29T05:10:44.996Z,6.86
2018-09-29T05:13:15.126Z,6.82
2018-09-29T05:15:45.721Z,6.70
2018-09-29T05:18:16.121Z,6.75
2018-09-29T05:20:46.185Z,6.82
2018-09-29T05:23:16.257Z,6.67
2018-09-29T05:25:47.135Z,6.66
2018-09-29T05:28:17.114Z,6.68
2018-09-29T05:30:47.793Z,6.71
2018-09-29T05:33:18.167Z,6.59
2018-09-29T05:35:48.897Z,6.49
2018-09-29T05:38:19.023Z,6.51
2018-09-29T05:40:49.317Z,6.47
2018-09-29T05:43:20.743Z,6.48
2018-09-29T05:45:50.690Z,6.47
2018-09-29T05:48:21.952Z,6.45
2018-09-29T05:50:52.459Z,6.58
2018-09-29T05:53:22.547Z,6.54
2018-09-29T05:55:52.436Z,6.66
2018-09-29T05:58:23.472Z,6.63
2018-09-29T06:00:53.584Z,6.69
2018-09-29T06:03:23.489Z,6.77
2018-09-29T06:05:54.336Z,6.81
2018-09-29T06:08:24.958Z,6.95
2018-09-29T06:10:55.846Z,7.08
2018-09-29T06:13:25.707Z,7.26
2018-09-29T06:15:55.912Z,7.41
2018-09-29T06:18:26.164Z,7.47
2018-09-29T06:20:56.952Z,7.56
2018-09-29T06:23:26.877Z,7.71
2018-09-29T06:25:57.015Z,7.81
2018-09-29T06:28:27.867Z,7.88
2018-09-29T06:30:57.947Z,7.94
2018-09-29T06:33:27.916Z,7.96
2018-09-29T06:35:57.998Z,7.94
2018-09-29T06:38:28.044Z,7.95
2018-09-29T06:40:57.987Z,7.96
2018-09-29T06:43:28.333Z,8.01
2018-09-29T06:45:58.912Z,8.01
2018-09-29T06:48:28.880Z,8.12
2018-09-29T06:50:58.989Z,8.27
2018-09-29T06:53:29.181Z,8.20
2018-09-29T06:55:59.487Z,8.20
2018-09-29T06:58:29.643Z,8.31
2018-09-29T07:00:59.650Z,8.45
2018-09-29T07:03:29.738Z,8.62
2018-09-29T07:05:59.548Z,8.71
2018-09-29T07:08:29.467Z,8.76
2018-09-29T07:10:59.104Z,8.86
2018-09-29T07:13:29.110Z,8.97
2018-09-29T07:15:59.208Z,9.08
2018-09-29T07:18:29.283Z,9.25
2018-09-29T07:20:59.473Z,9.44
2018-09-29T07:23:30.112Z,9.69
2018-09-29T07:26:00.099Z,9.97
2018-09-29T07:28:30.025Z,10.31
2018-09-29T07:31:00.049Z,10.81
2018-09-29T07:33:30.016Z,11.13
2018-09-29T07:36:00.668Z,11.72
2018-09-29T07:38:30.712Z,12.15
2018-09-29T07:41:00.102Z,12.48
2018-09-29T07:43:30.871Z,13.00
2018-09-29T07:46:01.155Z,13.48
2018-09-29T07:48:32.047Z,13.82
2018-09-29T07:51:03.367Z,13.69
2018-09-29T07:53:33.437Z,14.31
2018-09-29T07:56:03.770Z,14.81
2018-09-29T07:58:33.881Z,15.20
2018-09-29T08:01:03.509Z,15.43
2018-09-29T08:03:33.616Z,15.76
2018-09-29T08:06:03.769Z,15.81
2018-09-29T08:08:33.001Z,16.17
2018-09-29T08:11:02.727Z,15.52
2018-09-29T08:13:32.722Z,15.16
2018-09-29T08:16:02.662Z,15.70
2018-09-29T08:18:32.676Z,16.23
2018-09-29T08:21:02.349Z,16.32
2018-09-29T08:23:32.342Z,16.39
2018-09-29T08:26:02.187Z,16.22
2018-09-29T08:28:33.469Z,16.41
2018-09-29T08:31:03.286Z,16.52
2018-09-29T08:33:33.323Z,16.58
2018-09-29T08:36:03.428Z,16.95
2018-09-29T08:38:34.259Z,16.41
2018-09-29T08:41:04.168Z,16.41
2018-09-29T08:43:34.306Z,17.43
2018-09-29T08:46:04.451Z,17.81
2018-09-29T08:48:34.748Z,16.90
2018-09-29T08:51:04.901Z,18.06
2018-09-29T08:53:35.308Z,18.58
2018-09-29T08:56:05.475Z,18.39
2018-09-29T08:58:35.608Z,17.94
2018-09-29T09:01:05.435Z,17.79
2018-09-29T09:03:35.761Z,17.71
2018-09-29T09:06:05.642Z,17.91
2018-09-29T09:08:36.390Z,18.04
2018-09-29T09:11:06.543Z,17.73
2018-09-29T09:15:06.470Z,17.77
2018-09-29T09:17:36.887Z,18.52
2018-09-29T09:20:08.258Z,17.47
2018-09-29T09:22:38.245Z,18.62
2018-09-29T09:25:08.892Z,19.17
2018-09-29T09:27:39.303Z,18.70
2018-09-29T09:30:09.382Z,18.95
2018-09-29T09:32:40.390Z,18.47
2018-09-29T09:35:10.213Z,19.35
2018-09-29T09:37:40.274Z,18.24
2018-09-29T09:40:11.077Z,18.99
2018-09-29T09:42:41.085Z,18.22
2018-09-29T09:45:12.106Z,17.84
2018-09-29T09:47:43.279Z,18.15
2018-09-29T09:50:14.176Z,18.68
2018-09-29T09:52:44.243Z,18.43
2018-09-29T09:55:15.203Z,18.55
2018-09-29T09:57:45.930Z,18.94
2018-09-29T10:00:16.428Z,18.31
2018-09-29T10:03:53.369Z,18.82
2018-09-29T10:06:23.846Z,18.64
2018-09-29T10:08:53.826Z,18.94
2018-09-29T10:11:23.599Z,18.41
2018-09-29T10:13:54.604Z,17.86
2018-09-29T10:16:24.799Z,18.87
2018-09-29T10:18:55.045Z,18.32
2018-09-29T10:21:25.819Z,18.12
2018-09-29T10:23:56.395Z,18.66
2018-09-29T10:26:26.352Z,18.59
2018-09-29T10:28:56.355Z,19.11
2018-09-29T10:31:26.342Z,19.25
2018-09-29T10:33:56.823Z,18.97
2018-09-29T10:36:27.471Z,19.33
2018-09-29T10:38:57.361Z,18.88
2018-09-29T10:41:27.749Z,18.85
2018-09-29T10:43:57.766Z,18.46
2018-09-29T10:46:27.774Z,18.48
2018-09-29T10:48:59.120Z,18.55
2018-09-29T10:51:29.708Z,18.79
2018-09-29T10:53:59.881Z,18.80
2018-09-29T10:56:30.119Z,18.38
2018-09-29T10:59:00.249Z,17.76
2018-09-29T11:01:30.447Z,17.78
2018-09-29T11:04:01.445Z,17.74
2018-09-29T11:06:32.233Z,17.74
2018-09-29T11:09:02.277Z,17.60
2018-09-29T11:11:32.793Z,17.58
2018-09-29T11:14:03.562Z,17.64
2018-09-29T11:16:33.312Z,17.63
2018-09-29T11:19:03.216Z,17.12
2018-09-29T11:21:33.413Z,17.36
2018-09-29T11:24:03.730Z,16.79
2018-09-29T11:26:33.377Z,16.78
2018-09-29T11:29:03.544Z,17.00
2018-09-29T11:31:33.852Z,16.76
2018-09-29T11:34:04.077Z,16.64
2018-09-29T11:36:35.308Z,16.60
2018-09-29T11:39:07.088Z,16.56
2018-09-29T11:41:37.084Z,16.45
2018-09-29T11:44:07.195Z,16.46
2018-09-29T11:46:36.887Z,16.39
2018-09-29T11:49:07.909Z,16.15
2018-09-29T11:51:38.103Z,15.92
2018-09-29T11:54:08.092Z,15.89
2018-09-29T11:56:38.521Z,16.02
2018-09-29T11:59:09.571Z,16.08
2018-09-29T12:01:39.925Z,16.03
2018-09-29T12:04:10.246Z,15.88
2018-09-29T12:06:39.919Z,15.73
2018-09-29T12:09:12.166Z,15.95
2018-09-29T12:11:42.065Z,15.88
2018-09-29T12:14:12.003Z,16.01
2018-09-29T12:16:42.266Z,16.06
2018-09-29T12:19:12.496Z,16.10
2018-09-29T12:21:42.745Z,16.13
2018-09-29T12:24:13.776Z,16.29
2018-09-29T12:26:44.199Z,16.36
2018-09-29T12:29:15.359Z,16.18
2018-09-29T12:31:46.508Z,16.31
2018-09-29T12:34:16.417Z,16.39
2018-09-29T12:36:46.168Z,16.09
2018-09-29T12:39:18.279Z,16.14
2018-09-29T12:41:48.029Z,16.38
2018-09-29T12:44:17.953Z,16.52
2018-09-29T12:46:49.240Z,16.41
2018-09-29T12:49:19.185Z,16.16
2018-09-29T12:51:49.369Z,16.09
2018-09-29T12:54:19.680Z,16.12
2018-09-29T12:56:49.593Z,15.94
2018-09-29T12:59:19.603Z,15.89
2018-09-29T13:01:50.155Z,15.81
2018-09-29T13:04:20.019Z,15.73
2018-09-29T13:06:50.568Z,15.63
2018-09-29T13:09:20.238Z,15.52
2018-09-29T13:11:50.218Z,15.52
2018-09-29T13:14:20.219Z,15.44
2018-09-29T13:16:50.788Z,15.33
2018-09-29T13:19:20.523Z,15.33
2018-09-29T13:21:50.806Z,15.32
2018-09-29T13:24:20.977Z,15.28
2018-09-29T13:26:52.742Z,15.29
2018-09-29T13:29:24.158Z,15.30
2018-09-29T13:31:54.136Z,15.39
2018-09-29T13:34:24.269Z,15.38
2018-09-29T13:36:55.007Z,15.41
2018-09-29T13:39:25.437Z,15.47
2018-09-29T13:41:55.704Z,15.46
2018-09-29T13:44:25.757Z,15.56
2018-09-29T13:46:56.076Z,15.64
2018-09-29T13:49:26.154Z,15.66
2018-09-29T13:51:57.903Z,15.69
2018-09-29T13:54:29.471Z,15.76
2018-09-29T13:57:00.490Z,15.83
2018-09-29T13:59:30.912Z,15.79
2018-09-29T14:02:01.153Z,15.62
2018-09-29T14:04:31.550Z,15.40
2018-09-29T14:07:02.149Z,15.46
2018-09-29T14:09:32.570Z,15.44
2018-09-29T14:12:03.378Z,15.55
2018-09-29T14:14:33.221Z,15.46
2018-09-29T14:17:04.605Z,15.42
2018-09-29T14:19:36.094Z,15.27
2018-09-29T14:22:05.863Z,15.32
2018-09-29T14:24:35.775Z,15.30
2018-09-29T14:27:06.195Z,15.27
2018-09-29T14:29:36.123Z,15.19
2018-09-29T14:32:06.094Z,15.12
2018-09-29T14:34:35.905Z,15.10
2018-09-29T14:37:06.996Z,14.93
2018-09-29T14:39:37.694Z,14.96
2018-09-29T14:42:07.679Z,14.95
2018-09-29T14:44:39.566Z,14.91
2018-09-29T14:47:09.317Z,14.89
2018-09-29T14:49:39.109Z,14.94
2018-09-29T14:52:09.415Z,14.95
2018-09-29T14:54:39.184Z,14.99
2018-09-29T14:57:09.119Z,14.91
2018-09-29T14:59:39.032Z,14.91
2018-09-29T15:02:09.186Z,14.93
2018-09-29T15:04:38.966Z,14.89
2018-09-29T15:07:08.891Z,14.95
2018-09-29T15:09:40.114Z,14.93
2018-09-29T15:12:10.117Z,14.93
2018-09-29T15:14:40.592Z,14.95
2018-09-29T15:17:10.448Z,14.98
2018-09-29T15:19:40.094Z,14.93
2018-09-29T15:22:11.405Z,14.92
2018-09-29T15:24:41.978Z,14.95
2018-09-29T15:27:11.570Z,14.94
2018-09-29T15:29:41.375Z,14.85
2018-09-29T15:32:24.823Z,14.85
2018-09-29T15:34:54.695Z,14.87
2018-09-29T15:37:25.165Z,14.78
2018-09-29T15:39:55.628Z,14.79
2018-09-29T15:42:25.547Z,14.80
2018-09-29T15:44:55.239Z,14.79
2018-09-29T15:47:25.488Z,14.70
2018-09-29T15:49:55.747Z,14.73
2018-09-29T15:52:25.747Z,14.59
2018-09-29T15:54:56.207Z,14.57
2018-09-29T15:57:26.196Z,14.44
2018-09-29T15:59:56.471Z,14.48
2018-09-29T16:02:26.416Z,14.45
2018-09-29T16:04:56.325Z,14.38
2018-09-29T16:07:26.400Z,14.37
2018-09-29T16:09:56.359Z,14.40
2018-09-29T16:12:26.054Z,14.31
2018-09-29T16:14:55.882Z,14.18
2018-09-29T16:17:26.664Z,14.23
2018-09-29T16:19:57.924Z,14.21
2018-09-29T16:22:27.735Z,14.17
2018-09-29T16:24:58.534Z,14.07
2018-09-29T16:27:28.420Z,14.04
2018-09-29T16:29:57.519Z,14.04
2018-09-29T16:32:26.552Z,13.98
2018-09-29T16:34:56.564Z,13.92
2018-09-29T16:37:26.270Z,13.89
2018-09-29T16:39:56.547Z,13.82
2018-09-29T16:42:26.429Z,13.75
2018-09-29T16:44:56.433Z,13.67
2018-09-29T16:47:27.310Z,13.61
2018-09-29T16:49:57.312Z,13.56
2018-09-29T16:52:27.294Z,13.60
2018-09-29T16:54:57.238Z,13.56
2018-09-29T16:57:27.058Z,13.50
2018-09-29T16:59:56.934Z,13.48
2018-09-29T17:02:28.103Z,13.36
2018-09-29T17:04:58.374Z,13.29
2018-09-29T17:07:28.215Z,13.24
2018-09-29T17:09:58.866Z,13.25
2018-09-29T17:12:28.806Z,13.13
2018-09-29T17:14:58.877Z,13.13
2018-09-29T17:17:28.742Z,13.08
2018-09-29T17:19:58.757Z,13.06
2018-09-29T17:22:29.274Z,12.88
2018-09-29T17:24:59.063Z,12.75
2018-09-29T17:27:29.197Z,12.80
2018-09-29T17:29:59.365Z,12.82
2018-09-29T17:32:29.065Z,12.78
2018-09-29T17:34:58.602Z,12.70
2018-09-29T17:37:28.435Z,12.68
2018-09-29T17:39:58.036Z,12.64
2018-09-29T17:42:28.692Z,12.58
2018-09-29T17:44:58.525Z,12.52
2018-09-29T17:47:28.657Z,12.44
2018-09-29T17:49:58.561Z,12.39
2018-09-29T17:52:29.450Z,12.29
2018-09-29T17:54:59.921Z,12.27
2018-09-29T17:57:30.443Z,12.24
2018-09-29T18:00:00.123Z,12.17
2018-09-29T18:02:30.158Z,12.17
2018-09-29T18:05:00.477Z,12.09
2018-09-29T18:07:29.953Z,11.90
2018-09-29T18:09:59.808Z,11.97
2018-09-29T18:12:29.496Z,11.95
2018-09-29T18:14:59.310Z,11.93
2018-09-29T18:17:28.405Z,11.85
2018-09-29T18:19:58.501Z,11.81
2018-09-29T18:22:28.589Z,11.78
2018-09-29T18:24:58.395Z,11.67
2018-09-29T18:27:28.187Z,11.69
2018-09-29T18:29:58.153Z,11.66
2018-09-29T18:32:27.185Z,11.61
2018-09-29T18:34:58.077Z,11.45
2018-09-29T18:37:27.383Z,11.50
2018-09-29T18:39:57.817Z,11.45
2018-09-29T18:42:27.603Z,11.39
2018-09-29T18:44:58.141Z,11.39
2018-09-29T18:47:28.040Z,11.33
2018-09-29T18:49:57.956Z,11.32
2018-09-29T18:52:27.904Z,11.28
2018-09-29T18:54:57.767Z,11.21
2018-09-29T18:57:27.649Z,11.19
2018-09-29T18:59:57.665Z,11.17
2018-09-29T19:02:27.367Z,11.13
2018-09-29T19:04:57.769Z,11.09
2018-09-29T19:07:27.771Z,11.07
2018-09-29T19:09:57.100Z,11.05
2018-09-29T19:12:26.792Z,11.02
2018-09-29T19:14:57.283Z,10.95
2018-09-29T19:17:27.354Z,10.92
2018-09-29T19:19:58.492Z,10.87
2018-09-29T19:22:28.449Z,10.82
2018-09-29T19:24:58.182Z,10.72
2018-09-29T19:27:28.074Z,10.75
2018-09-29T19:29:57.597Z,10.71
2018-09-29T19:32:27.386Z,10.60
2018-09-29T19:34:56.448Z,10.67
2018-09-29T19:37:26.891Z,10.63
2018-09-29T19:39:56.912Z,10.62
2018-09-29T19:42:26.653Z,10.59
2018-09-29T19:44:57.360Z,10.56
2018-09-29T19:47:26.777Z,10.55
2018-09-29T19:49:56.581Z,10.51
2018-09-29T19:52:26.469Z,10.49
2018-09-29T19:54:56.962Z,10.43
2018-09-29T19:57:26.885Z,10.40
2018-09-29T19:59:56.538Z,10.38
2018-09-29T20:02:26.447Z,10.34
2018-09-29T20:04:56.020Z,10.32
2018-09-29T20:07:27.044Z,10.28
2018-09-29T20:09:56.871Z,10.27
2018-09-29T20:12:26.778Z,10.24
2018-09-29T20:14:56.482Z,10.24
2018-09-29T20:17:26.401Z,10.20
2018-09-29T20:19:56.520Z,10.18
2018-09-29T20:22:26.863Z,10.13
2018-09-29T20:24:56.624Z,10.11
2018-09-29T20:27:25.008Z,10.10
2018-09-29T20:29:54.631Z,10.06
2018-09-29T20:32:25.272Z,10.02
2018-09-29T20:34:55.216Z,10.00
2018-09-29T20:37:24.782Z,10.00
2018-09-29T20:39:54.993Z,9.95
2018-09-29T20:42:24.876Z,9.92
2018-09-29T20:44:56.523Z,9.88
2018-09-29T20:47:26.476Z,9.86
2018-09-29T20:49:56.991Z,9.85
2018-09-29T20:52:26.859Z,9.86
2018-09-29T20:54:57.063Z,9.74
2018-09-29T20:57:27.066Z,9.77
2018-09-29T20:59:56.824Z,9.79
2018-09-29T21:02:26.532Z,9.72
2018-09-29T21:04:55.937Z,9.71
2018-09-29T21:07:25.749Z,9.68
2018-09-29T21:09:56.184Z,9.67
2018-09-29T21:12:26.169Z,9.69
2018-09-29T21:14:55.973Z,9.72
2018-09-29T21:17:25.845Z,9.70
2018-09-29T21:19:55.578Z,9.66
2018-09-29T21:22:25.024Z,9.64
2018-09-29T21:24:55.226Z,9.64
2018-09-29T21:27:25.902Z,9.63
2018-09-29T21:29:56.223Z,9.63
2018-09-29T21:32:26.308Z,9.72
2018-09-29T21:34:56.224Z,9.72
2018-09-29T21:37:26.585Z,9.76
2018-09-29T21:39:56.651Z,9.75
2018-09-29T21:42:26.512Z,9.76
2018-09-29T21:44:57.105Z,9.74
2018-09-29T21:47:27.017Z,9.71
2018-09-29T21:49:56.860Z,9.69
2018-09-29T21:52:26.764Z,9.63
2018-09-29T21:54:57.409Z,9.63
2018-09-29T21:57:27.757Z,9.57
2018-09-29T21:59:59.518Z,9.53
2018-09-29T22:02:29.447Z,9.45
2018-09-29T22:05:00.774Z,9.50
2018-09-29T22:07:30.394Z,9.38
2018-09-29T22:10:00.438Z,9.40
2018-09-29T22:12:30.421Z,9.40
2018-09-29T22:15:00.492Z,9.37
2018-09-29T22:17:31.086Z,9.28
2018-09-29T22:20:01.286Z,9.31
2018-09-29T22:22:31.416Z,9.25
2018-09-29T22:25:01.731Z,9.23
2018-09-29T22:27:31.739Z,9.22
2018-09-29T22:30:01.080Z,9.26
2018-09-29T22:32:30.377Z,9.28
2018-09-29T22:35:00.272Z,9.30
2018-09-29T22:37:30.249Z,9.32
2018-09-29T22:40:00.509Z,9.32
2018-09-29T22:42:30.493Z,9.32
2018-09-29T22:45:01.193Z,9.33
2018-09-29T22:47:31.278Z,9.31
2018-09-29T22:50:02.253Z,9.36
2018-09-29T22:52:32.905Z,9.32
2018-09-29T22:55:02.889Z,9.35
2018-09-29T22:57:32.817Z,9.35
2018-09-29T23:00:03.277Z,9.31
2018-09-29T23:02:33.487Z,9.29
2018-09-29T23:05:03.383Z,9.23
2018-09-29T23:07:33.238Z,9.22
2018-09-29T23:10:03.082Z,9.27
2018-09-29T23:12:33.044Z,9.26
2018-09-29T23:15:02.795Z,9.28
2018-09-29T23:17:32.701Z,9.27
2018-09-29T23:20:02.766Z,9.25
2018-09-29T23:22:32.068Z,9.18
2018-09-29T23:25:02.116Z,9.22
2018-09-29T23:27:31.863Z,9.21
2018-09-29T23:30:01.586Z,9.17
2018-09-29T23:32:32.106Z,9.12
2018-09-29T23:35:02.040Z,9.11
2018-09-29T23:37:32.675Z,9.10
2018-09-29T23:40:02.459Z,9.09
2018-09-29T23:42:32.980Z,9.03
2018-09-29T23:45:03.247Z,8.99
2018-09-29T23:47:33.352Z,9.00
2018-09-29T23:50:03.442Z,9.01
2018-09-29T23:52:33.331Z,8.94
2018-09-29T23:55:03.328Z,8.90
2018-09-29T23:57:33.288Z,8.77
